sensor_id;sensor_type;location;lat;lon;timestamp;temperature;humidity
72814;DHT22;60945;48.516;-2.768;2023-11-18T00:00:18;11.20;94.20
72814;DHT22;60945;48.516;-2.768;2023-11-18T00:02:44;11.20;94.40
72814;DHT22;60945;48.516;-2.768;2023-11-18T00:05:10;11.20;94.80
72814;DHT22;60945;48.516;-2.768;2023-11-18T00:07:36;11.20;94.70
72814;DHT22;60945;48.516;-2.768;2023-11-18T00:10:02;11.30;94.70
72814;DHT22;60945;48.516;-2.768;2023-11-18T00:12:29;11.40;94.40
72814;DHT22;60945;48.516;-2.768;2023-11-18T00:14:55;11.30;94.30
72814;DHT22;60945;48.516;-2.768;2023-11-18T00:17:21;11.30;94.90
72814;DHT22;60945;48.516;-2.768;2023-11-18T00:19:47;11.50;94.50
72814;DHT22;60945;48.516;-2.768;2023-11-18T00:22:13;11.50;93.60
72814;DHT22;60945;48.516;-2.768;2023-11-18T00:24:39;11.50;93.60
72814;DHT22;60945;48.516;-2.768;2023-11-18T00:27:04;11.40;94.30
72814;DHT22;60945;48.516;-2.768;2023-11-18T00:29:33;11.50;94.40
72814;DHT22;60945;48.516;-2.768;2023-11-18T00:32:00;11.50;94.40
72814;DHT22;60945;48.516;-2.768;2023-11-18T00:34:26;11.60;93.70
72814;DHT22;60945;48.516;-2.768;2023-11-18T00:36:51;11.70;93.50
72814;DHT22;60945;48.516;-2.768;2023-11-18T00:39:17;11.70;93.70
72814;DHT22;60945;48.516;-2.768;2023-11-18T00:41:43;11.70;93.80
72814;DHT22;60945;48.516;-2.768;2023-11-18T00:44:09;11.60;94.20
72814;DHT22;60945;48.516;-2.768;2023-11-18T00:46:35;11.70;94.40
72814;DHT22;60945;48.516;-2.768;2023-11-18T00:49:02;11.70;94.40
72814;DHT22;60945;48.516;-2.768;2023-11-18T00:51:28;11.70;94.80
72814;DHT22;60945;48.516;-2.768;2023-11-18T00:53:54;11.80;94.70
72814;DHT22;60945;48.516;-2.768;2023-11-18T00:56:20;11.80;94.20
72814;DHT22;60945;48.516;-2.768;2023-11-18T00:58:47;11.80;94.30
72814;DHT22;60945;48.516;-2.768;2023-11-18T01:01:13;11.90;94.30
72814;DHT22;60945;48.516;-2.768;2023-11-18T01:03:39;11.90;94.00
72814;DHT22;60945;48.516;-2.768;2023-11-18T01:06:05;11.90;94.20
72814;DHT22;60945;48.516;-2.768;2023-11-18T01:08:32;11.90;94.00
72814;DHT22;60945;48.516;-2.768;2023-11-18T01:11:00;11.90;94.10
72814;DHT22;60945;48.516;-2.768;2023-11-18T01:13:26;12.00;93.90
72814;DHT22;60945;48.516;-2.768;2023-11-18T01:15:52;12.10;93.90
72814;DHT22;60945;48.516;-2.768;2023-11-18T01:18:18;12.00;93.60
72814;DHT22;60945;48.516;-2.768;2023-11-18T01:20:43;12.00;93.80
72814;DHT22;60945;48.516;-2.768;2023-11-18T01:23:09;12.10;94.00
72814;DHT22;60945;48.516;-2.768;2023-11-18T01:25:35;12.00;94.00
72814;DHT22;60945;48.516;-2.768;2023-11-18T01:28:00;12.00;94.60
72814;DHT22;60945;48.516;-2.768;2023-11-18T01:30:26;12.10;94.80
72814;DHT22;60945;48.516;-2.768;2023-11-18T01:32:52;12.10;94.70
72814;DHT22;60945;48.516;-2.768;2023-11-18T01:35:18;12.10;94.30
72814;DHT22;60945;48.516;-2.768;2023-11-18T01:37:45;12.20;94.70
72814;DHT22;60945;48.516;-2.768;2023-11-18T01:40:10;12.20;94.30
72814;DHT22;60945;48.516;-2.768;2023-11-18T01:42:44;12.10;94.50
72814;DHT22;60945;48.516;-2.768;2023-11-18T01:45:12;12.20;94.60
72814;DHT22;60945;48.516;-2.768;2023-11-18T01:47:40;12.20;94.80
72814;DHT22;60945;48.516;-2.768;2023-11-18T01:50:07;12.20;94.70
72814;DHT22;60945;48.516;-2.768;2023-11-18T01:52:34;12.30;94.60
72814;DHT22;60945;48.516;-2.768;2023-11-18T01:55:01;12.20;95.30
72814;DHT22;60945;48.516;-2.768;2023-11-18T01:57:29;12.20;96.00
72814;DHT22;60945;48.516;-2.768;2023-11-18T01:59:55;12.20;96.50
72814;DHT22;60945;48.516;-2.768;2023-11-18T02:02:21;12.10;97.20
72814;DHT22;60945;48.516;-2.768;2023-11-18T02:04:47;12.10;97.70
72814;DHT22;60945;48.516;-2.768;2023-11-18T02:07:13;12.20;97.70
72814;DHT22;60945;48.516;-2.768;2023-11-18T02:09:41;12.20;97.10
72814;DHT22;60945;48.516;-2.768;2023-11-18T02:12:30;12.20;97.10
72814;DHT22;60945;48.516;-2.768;2023-11-18T02:15:04;12.20;97.00
72814;DHT22;60945;48.516;-2.768;2023-11-18T02:17:37;12.30;96.80
72814;DHT22;60945;48.516;-2.768;2023-11-18T02:20:04;12.40;96.70
72814;DHT22;60945;48.516;-2.768;2023-11-18T02:22:41;12.40;95.90
72814;DHT22;60945;48.516;-2.768;2023-11-18T02:25:09;12.50;95.70
72814;DHT22;60945;48.516;-2.768;2023-11-18T02:27:37;12.40;96.00
72814;DHT22;60945;48.516;-2.768;2023-11-18T02:30:03;12.40;96.60
72814;DHT22;60945;48.516;-2.768;2023-11-18T02:32:33;12.30;97.10
72814;DHT22;60945;48.516;-2.768;2023-11-18T02:35:10;12.40;97.90
72814;DHT22;60945;48.516;-2.768;2023-11-18T02:37:40;12.40;98.10
72814;DHT22;60945;48.516;-2.768;2023-11-18T02:40:08;12.40;98.40
72814;DHT22;60945;48.516;-2.768;2023-11-18T02:42:41;12.40;99.40
72814;DHT22;60945;48.516;-2.768;2023-11-18T02:45:10;12.40;99.90
72814;DHT22;60945;48.516;-2.768;2023-11-18T02:47:38;12.40;99.90
72814;DHT22;60945;48.516;-2.768;2023-11-18T02:50:05;12.50;99.90
72814;DHT22;60945;48.516;-2.768;2023-11-18T02:52:36;12.50;99.90
72814;DHT22;60945;48.516;-2.768;2023-11-18T02:55:04;12.50;99.90
72814;DHT22;60945;48.516;-2.768;2023-11-18T02:57:32;12.50;99.80
72814;DHT22;60945;48.516;-2.768;2023-11-18T02:59:58;12.50;99.90
72814;DHT22;60945;48.516;-2.768;2023-11-18T03:02:28;12.60;99.90
72814;DHT22;60945;48.516;-2.768;2023-11-18T03:04:56;12.60;99.90
72814;DHT22;60945;48.516;-2.768;2023-11-18T03:07:22;12.70;99.90
72814;DHT22;60945;48.516;-2.768;2023-11-18T03:09:47;12.80;99.40
72814;DHT22;60945;48.516;-2.768;2023-11-18T03:12:13;12.90;98.80
72814;DHT22;60945;48.516;-2.768;2023-11-18T03:14:39;12.90;98.40
72814;DHT22;60945;48.516;-2.768;2023-11-18T03:17:05;12.80;98.30
72814;DHT22;60945;48.516;-2.768;2023-11-18T03:19:35;12.90;98.10
72814;DHT22;60945;48.516;-2.768;2023-11-18T03:22:01;13.00;98.00
72814;DHT22;60945;48.516;-2.768;2023-11-18T03:24:28;13.00;97.70
72814;DHT22;60945;48.516;-2.768;2023-11-18T03:26:56;13.10;97.40
72814;DHT22;60945;48.516;-2.768;2023-11-18T03:29:22;13.20;96.70
72814;DHT22;60945;48.516;-2.768;2023-11-18T03:31:49;13.10;96.90
72814;DHT22;60945;48.516;-2.768;2023-11-18T03:34:18;13.10;97.00
72814;DHT22;60945;48.516;-2.768;2023-11-18T03:36:47;13.30;96.60
72814;DHT22;60945;48.516;-2.768;2023-11-18T03:39:13;13.20;96.80
72814;DHT22;60945;48.516;-2.768;2023-11-18T03:41:40;13.30;96.70
72814;DHT22;60945;48.516;-2.768;2023-11-18T03:44:05;13.30;96.70
72814;DHT22;60945;48.516;-2.768;2023-11-18T03:46:31;13.40;96.60
72814;DHT22;60945;48.516;-2.768;2023-11-18T03:49:00;13.30;96.80
72814;DHT22;60945;48.516;-2.768;2023-11-18T03:51:26;13.20;97.30
72814;DHT22;60945;48.516;-2.768;2023-11-18T03:53:52;13.20;97.70
72814;DHT22;60945;48.516;-2.768;2023-11-18T03:56:17;13.30;97.40
72814;DHT22;60945;48.516;-2.768;2023-11-18T03:58:46;13.30;97.10
72814;DHT22;60945;48.516;-2.768;2023-11-18T04:01:24;13.40;96.90
72814;DHT22;60945;48.516;-2.768;2023-11-18T04:03:53;13.50;96.80
72814;DHT22;60945;48.516;-2.768;2023-11-18T04:06:20;13.40;96.50
72814;DHT22;60945;48.516;-2.768;2023-11-18T04:08:47;13.50;96.80
72814;DHT22;60945;48.516;-2.768;2023-11-18T04:11:13;13.60;96.70
72814;DHT22;60945;48.516;-2.768;2023-11-18T04:13:40;13.60;96.40
72814;DHT22;60945;48.516;-2.768;2023-11-18T04:16:16;13.60;96.70
72814;DHT22;60945;48.516;-2.768;2023-11-18T04:18:43;13.50;96.70
72814;DHT22;60945;48.516;-2.768;2023-11-18T04:21:09;13.60;97.70
72814;DHT22;60945;48.516;-2.768;2023-11-18T04:23:37;13.50;97.80
72814;DHT22;60945;48.516;-2.768;2023-11-18T04:26:04;13.60;98.00
72814;DHT22;60945;48.516;-2.768;2023-11-18T04:28:29;13.60;97.60
72814;DHT22;60945;48.516;-2.768;2023-11-18T04:30:55;13.50;98.00
72814;DHT22;60945;48.516;-2.768;2023-11-18T04:33:21;13.60;99.20
72814;DHT22;60945;48.516;-2.768;2023-11-18T04:35:47;13.70;97.80
72814;DHT22;60945;48.516;-2.768;2023-11-18T04:38:13;13.60;97.60
72814;DHT22;60945;48.516;-2.768;2023-11-18T04:40:38;13.60;98.40
72814;DHT22;60945;48.516;-2.768;2023-11-18T04:43:06;13.60;99.20
72814;DHT22;60945;48.516;-2.768;2023-11-18T04:45:32;13.60;99.90
72814;DHT22;60945;48.516;-2.768;2023-11-18T04:47:58;13.50;99.90
72814;DHT22;60945;48.516;-2.768;2023-11-18T04:50:25;13.50;99.90
72814;DHT22;60945;48.516;-2.768;2023-11-18T04:52:50;13.60;99.90
72814;DHT22;60945;48.516;-2.768;2023-11-18T04:55:16;13.60;99.90
72814;DHT22;60945;48.516;-2.768;2023-11-18T04:57:42;13.70;99.90
72814;DHT22;60945;48.516;-2.768;2023-11-18T05:00:09;13.80;99.90
72814;DHT22;60945;48.516;-2.768;2023-11-18T05:02:42;13.80;99.90
72814;DHT22;60945;48.516;-2.768;2023-11-18T05:05:08;13.80;99.90
72814;DHT22;60945;48.516;-2.768;2023-11-18T05:07:34;13.80;99.90
72814;DHT22;60945;48.516;-2.768;2023-11-18T05:10:01;13.90;99.90
72814;DHT22;60945;48.516;-2.768;2023-11-18T05:12:28;14.00;99.90
72814;DHT22;60945;48.516;-2.768;2023-11-18T05:14:55;14.00;99.90
72814;DHT22;60945;48.516;-2.768;2023-11-18T05:17:25;14.00;99.90
72814;DHT22;60945;48.516;-2.768;2023-11-18T05:19:52;14.10;99.90
72814;DHT22;60945;48.516;-2.768;2023-11-18T05:22:17;14.00;99.90
72814;DHT22;60945;48.516;-2.768;2023-11-18T05:24:43;14.10;99.90
72814;DHT22;60945;48.516;-2.768;2023-11-18T05:27:09;14.10;99.80
72814;DHT22;60945;48.516;-2.768;2023-11-18T05:29:35;14.20;99.60
72814;DHT22;60945;48.516;-2.768;2023-11-18T05:32:00;14.30;99.40
72814;DHT22;60945;48.516;-2.768;2023-11-18T05:34:26;14.30;99.40
72814;DHT22;60945;48.516;-2.768;2023-11-18T05:36:52;14.40;99.20
72814;DHT22;60945;48.516;-2.768;2023-11-18T05:39:22;14.40;99.30
72814;DHT22;60945;48.516;-2.768;2023-11-18T05:41:50;14.40;99.20
72814;DHT22;60945;48.516;-2.768;2023-11-18T05:44:16;14.40;99.50
72814;DHT22;60945;48.516;-2.768;2023-11-18T05:46:47;14.40;99.40
72814;DHT22;60945;48.516;-2.768;2023-11-18T05:49:13;14.50;99.40
72814;DHT22;60945;48.516;-2.768;2023-11-18T05:51:40;14.50;99.60
72814;DHT22;60945;48.516;-2.768;2023-11-18T05:54:09;14.50;99.80
72814;DHT22;60945;48.516;-2.768;2023-11-18T05:56:35;14.50;99.90
72814;DHT22;60945;48.516;-2.768;2023-11-18T05:59:02;14.50;99.70
72814;DHT22;60945;48.516;-2.768;2023-11-18T06:01:31;14.50;99.90
72814;DHT22;60945;48.516;-2.768;2023-11-18T06:03:57;14.60;99.90
72814;DHT22;60945;48.516;-2.768;2023-11-18T06:06:23;14.60;99.90
72814;DHT22;60945;48.516;-2.768;2023-11-18T06:08:49;14.70;99.60
72814;DHT22;60945;48.516;-2.768;2023-11-18T06:11:15;14.60;99.30
72814;DHT22;60945;48.516;-2.768;2023-11-18T06:13:46;14.60;99.20
72814;DHT22;60945;48.516;-2.768;2023-11-18T06:16:22;14.60;99.80
72814;DHT22;60945;48.516;-2.768;2023-11-18T06:18:54;14.60;99.90
72814;DHT22;60945;48.516;-2.768;2023-11-18T06:21:24;14.60;99.50
72814;DHT22;60945;48.516;-2.768;2023-11-18T06:23:53;14.60;99.60
72814;DHT22;60945;48.516;-2.768;2023-11-18T06:26:20;14.70;99.20
72814;DHT22;60945;48.516;-2.768;2023-11-18T06:28:47;14.80;98.60
72814;DHT22;60945;48.516;-2.768;2023-11-18T06:31:14;14.80;98.40
72814;DHT22;60945;48.516;-2.768;2023-11-18T06:33:44;14.80;98.30
72814;DHT22;60945;48.516;-2.768;2023-11-18T06:38:40;14.90;97.50
72814;DHT22;60945;48.516;-2.768;2023-11-18T06:41:09;14.80;97.90
72814;DHT22;60945;48.516;-2.768;2023-11-18T06:43:42;14.80;98.20
72814;DHT22;60945;48.516;-2.768;2023-11-18T06:46:18;14.90;98.00
72814;DHT22;60945;48.516;-2.768;2023-11-18T06:48:47;14.80;98.20
72814;DHT22;60945;48.516;-2.768;2023-11-18T06:51:13;14.90;98.10
72814;DHT22;60945;48.516;-2.768;2023-11-18T06:53:41;14.90;98.10
72814;DHT22;60945;48.516;-2.768;2023-11-18T06:56:07;14.80;97.90
72814;DHT22;60945;48.516;-2.768;2023-11-18T06:58:32;14.80;97.90
72814;DHT22;60945;48.516;-2.768;2023-11-18T07:00:59;14.80;97.80
72814;DHT22;60945;48.516;-2.768;2023-11-18T07:03:24;14.90;97.90
72814;DHT22;60945;48.516;-2.768;2023-11-18T07:05:51;14.90;97.80
72814;DHT22;60945;48.516;-2.768;2023-11-18T07:08:16;14.90;98.00
72814;DHT22;60945;48.516;-2.768;2023-11-18T07:10:42;15.00;97.70
72814;DHT22;60945;48.516;-2.768;2023-11-18T07:13:08;14.90;97.20
72814;DHT22;60945;48.516;-2.768;2023-11-18T07:15:34;14.90;97.20
72814;DHT22;60945;48.516;-2.768;2023-11-18T07:18:01;14.90;97.50
72814;DHT22;60945;48.516;-2.768;2023-11-18T07:20:27;14.90;97.00
72814;DHT22;60945;48.516;-2.768;2023-11-18T07:22:53;14.90;96.90
72814;DHT22;60945;48.516;-2.768;2023-11-18T07:25:19;14.90;97.00
72814;DHT22;60945;48.516;-2.768;2023-11-18T07:27:47;14.90;96.80
72814;DHT22;60945;48.516;-2.768;2023-11-18T07:30:12;14.90;97.00
72814;DHT22;60945;48.516;-2.768;2023-11-18T07:32:39;14.90;97.10
72814;DHT22;60945;48.516;-2.768;2023-11-18T07:35:06;14.90;97.10
72814;DHT22;60945;48.516;-2.768;2023-11-18T07:37:37;14.90;96.80
72814;DHT22;60945;48.516;-2.768;2023-11-18T07:40:07;15.00;96.70
72814;DHT22;60945;48.516;-2.768;2023-11-18T07:42:34;15.00;96.60
72814;DHT22;60945;48.516;-2.768;2023-11-18T07:45:03;15.00;96.50
72814;DHT22;60945;48.516;-2.768;2023-11-18T07:47:30;15.10;95.80
72814;DHT22;60945;48.516;-2.768;2023-11-18T07:49:59;15.00;96.10
72814;DHT22;60945;48.516;-2.768;2023-11-18T07:52:26;15.10;96.10
72814;DHT22;60945;48.516;-2.768;2023-11-18T07:54:53;15.20;96.10
72814;DHT22;60945;48.516;-2.768;2023-11-18T07:57:19;15.10;95.60
72814;DHT22;60945;48.516;-2.768;2023-11-18T07:59:48;15.10;95.80
72814;DHT22;60945;48.516;-2.768;2023-11-18T08:02:16;15.20;95.40
72814;DHT22;60945;48.516;-2.768;2023-11-18T08:04:42;15.10;95.60
72814;DHT22;60945;48.516;-2.768;2023-11-18T08:07:08;15.20;95.40
72814;DHT22;60945;48.516;-2.768;2023-11-18T08:09:36;15.20;95.10
72814;DHT22;60945;48.516;-2.768;2023-11-18T08:12:05;15.20;94.90
72814;DHT22;60945;48.516;-2.768;2023-11-18T08:14:34;15.20;95.00
72814;DHT22;60945;48.516;-2.768;2023-11-18T08:17:00;15.30;94.60
72814;DHT22;60945;48.516;-2.768;2023-11-18T08:19:26;15.30;94.60
72814;DHT22;60945;48.516;-2.768;2023-11-18T08:21:51;15.30;95.00
72814;DHT22;60945;48.516;-2.768;2023-11-18T08:24:17;15.20;95.60
72814;DHT22;60945;48.516;-2.768;2023-11-18T08:26:43;15.10;97.70
72814;DHT22;60945;48.516;-2.768;2023-11-18T08:29:11;15.00;99.90
72814;DHT22;60945;48.516;-2.768;2023-11-18T08:31:38;14.60;99.90
72814;DHT22;60945;48.516;-2.768;2023-11-18T08:34:05;14.60;99.90
72814;DHT22;60945;48.516;-2.768;2023-11-18T08:36:30;14.50;99.90
72814;DHT22;60945;48.516;-2.768;2023-11-18T08:38:57;14.50;99.90
72814;DHT22;60945;48.516;-2.768;2023-11-18T08:41:23;14.50;99.90
72814;DHT22;60945;48.516;-2.768;2023-11-18T08:43:49;14.50;99.90
72814;DHT22;60945;48.516;-2.768;2023-11-18T08:46:15;14.50;99.90
72814;DHT22;60945;48.516;-2.768;2023-11-18T08:48:40;14.50;99.90
72814;DHT22;60945;48.516;-2.768;2023-11-18T08:51:07;14.60;99.90
72814;DHT22;60945;48.516;-2.768;2023-11-18T08:53:34;14.70;99.90
72814;DHT22;60945;48.516;-2.768;2023-11-18T08:56:08;14.70;99.90
72814;DHT22;60945;48.516;-2.768;2023-11-18T08:58:45;14.70;99.90
72814;DHT22;60945;48.516;-2.768;2023-11-18T09:01:11;14.80;99.90
72814;DHT22;60945;48.516;-2.768;2023-11-18T09:03:41;14.70;99.90
72814;DHT22;60945;48.516;-2.768;2023-11-18T09:06:14;14.80;99.90
72814;DHT22;60945;48.516;-2.768;2023-11-18T09:08:44;14.80;99.90
72814;DHT22;60945;48.516;-2.768;2023-11-18T09:11:12;14.90;99.90
72814;DHT22;60945;48.516;-2.768;2023-11-18T09:13:46;14.90;99.90
72814;DHT22;60945;48.516;-2.768;2023-11-18T09:16:14;14.80;99.90
72814;DHT22;60945;48.516;-2.768;2023-11-18T09:18:43;14.80;99.90
72814;DHT22;60945;48.516;-2.768;2023-11-18T09:21:12;14.90;99.90
72814;DHT22;60945;48.516;-2.768;2023-11-18T09:23:44;14.90;99.90
72814;DHT22;60945;48.516;-2.768;2023-11-18T09:26:18;14.80;99.90
72814;DHT22;60945;48.516;-2.768;2023-11-18T09:28:44;14.90;99.90
72814;DHT22;60945;48.516;-2.768;2023-11-18T09:31:10;15.10;99.90
72814;DHT22;60945;48.516;-2.768;2023-11-18T09:33:40;15.00;99.90
72814;DHT22;60945;48.516;-2.768;2023-11-18T09:36:11;15.00;99.90
72814;DHT22;60945;48.516;-2.768;2023-11-18T09:38:41;15.10;99.90
72814;DHT22;60945;48.516;-2.768;2023-11-18T09:41:08;15.10;99.90
72814;DHT22;60945;48.516;-2.768;2023-11-18T09:43:46;15.20;99.90
72814;DHT22;60945;48.516;-2.768;2023-11-18T09:46:17;15.40;99.90
72814;DHT22;60945;48.516;-2.768;2023-11-18T09:48:53;15.40;99.90
72814;DHT22;60945;48.516;-2.768;2023-11-18T09:51:36;15.40;99.90
72814;DHT22;60945;48.516;-2.768;2023-11-18T09:56:51;15.50;99.90
72814;DHT22;60945;48.516;-2.768;2023-11-18T09:59:32;15.50;99.90
72814;DHT22;60945;48.516;-2.768;2023-11-18T10:02:02;15.40;99.90
72814;DHT22;60945;48.516;-2.768;2023-11-18T10:04:30;15.50;99.90
72814;DHT22;60945;48.516;-2.768;2023-11-18T10:06:57;15.40;99.90
72814;DHT22;60945;48.516;-2.768;2023-11-18T10:09:26;15.40;99.90
72814;DHT22;60945;48.516;-2.768;2023-11-18T10:12:08;15.60;99.90
72814;DHT22;60945;48.516;-2.768;2023-11-18T10:14:41;15.60;99.90
72814;DHT22;60945;48.516;-2.768;2023-11-18T10:17:09;15.60;99.90
72814;DHT22;60945;48.516;-2.768;2023-11-18T10:19:54;15.70;99.90
72814;DHT22;60945;48.516;-2.768;2023-11-18T10:22:28;15.70;99.90
72814;DHT22;60945;48.516;-2.768;2023-11-18T10:24:55;15.90;99.90
72814;DHT22;60945;48.516;-2.768;2023-11-18T10:27:25;16.10;99.90
72814;DHT22;60945;48.516;-2.768;2023-11-18T10:30:01;16.50;99.90
72814;DHT22;60945;48.516;-2.768;2023-11-18T10:32:27;16.90;99.90
72814;DHT22;60945;48.516;-2.768;2023-11-18T10:34:56;17.20;96.30
72814;DHT22;60945;48.516;-2.768;2023-11-18T10:37:22;17.30;91.40
72814;DHT22;60945;48.516;-2.768;2023-11-18T10:39:48;17.20;93.30
72814;DHT22;60945;48.516;-2.768;2023-11-18T10:42:20;17.20;92.80
72814;DHT22;60945;48.516;-2.768;2023-11-18T10:44:56;16.90;92.40
72814;DHT22;60945;48.516;-2.768;2023-11-18T10:47:34;16.80;93.20
72814;DHT22;60945;48.516;-2.768;2023-11-18T10:50:04;16.80;93.00
72814;DHT22;60945;48.516;-2.768;2023-11-18T10:52:31;16.90;93.00
72814;DHT22;60945;48.516;-2.768;2023-11-18T10:55:00;17.20;91.80
72814;DHT22;60945;48.516;-2.768;2023-11-18T10:57:36;17.10;91.30
72814;DHT22;60945;48.516;-2.768;2023-11-18T11:00:04;17.00;90.70
72814;DHT22;60945;48.516;-2.768;2023-11-18T11:02:40;17.00;92.00
72814;DHT22;60945;48.516;-2.768;2023-11-18T11:05:07;16.80;92.20
72814;DHT22;60945;48.516;-2.768;2023-11-18T11:07:33;17.10;91.90
72814;DHT22;60945;48.516;-2.768;2023-11-18T11:10:05;17.20;90.30
72814;DHT22;60945;48.516;-2.768;2023-11-18T11:12:38;17.20;90.10
72814;DHT22;60945;48.516;-2.768;2023-11-18T11:17:34;16.80;91.70
72814;DHT22;60945;48.516;-2.768;2023-11-18T11:20:07;17.00;91.90
72814;DHT22;60945;48.516;-2.768;2023-11-18T11:23:01;17.00;90.80
72814;DHT22;60945;48.516;-2.768;2023-11-18T11:28:43;16.70;92.80
72814;DHT22;60945;48.516;-2.768;2023-11-18T11:31:20;16.70;93.40
72814;DHT22;60945;48.516;-2.768;2023-11-18T11:34:02;16.50;94.40
72814;DHT22;60945;48.516;-2.768;2023-11-18T11:36:37;16.70;94.70
72814;DHT22;60945;48.516;-2.768;2023-11-18T11:39:07;16.70;93.20
72814;DHT22;60945;48.516;-2.768;2023-11-18T11:41:46;16.50;94.00
72814;DHT22;60945;48.516;-2.768;2023-11-18T11:44:16;16.40;95.90
72814;DHT22;60945;48.516;-2.768;2023-11-18T11:46:48;16.40;96.20
72814;DHT22;60945;48.516;-2.768;2023-11-18T11:49:20;16.60;96.90
72814;DHT22;60945;48.516;-2.768;2023-11-18T11:54:33;16.40;96.00
72814;DHT22;60945;48.516;-2.768;2023-11-18T11:57:02;16.60;95.50
72814;DHT22;60945;48.516;-2.768;2023-11-18T12:02:21;16.30;97.40
72814;DHT22;60945;48.516;-2.768;2023-11-18T12:04:51;16.30;98.40
72814;DHT22;60945;48.516;-2.768;2023-11-18T12:07:22;16.40;97.60
72814;DHT22;60945;48.516;-2.768;2023-11-18T12:09:58;16.50;98.10
72814;DHT22;60945;48.516;-2.768;2023-11-18T12:12:26;16.60;97.20
72814;DHT22;60945;48.516;-2.768;2023-11-18T12:15:01;16.70;95.90
72814;DHT22;60945;48.516;-2.768;2023-11-18T12:23:13;16.70;96.50
72814;DHT22;60945;48.516;-2.768;2023-11-18T12:25:46;16.70;94.80
72814;DHT22;60945;48.516;-2.768;2023-11-18T12:28:16;16.70;94.30
72814;DHT22;60945;48.516;-2.768;2023-11-18T12:30:45;16.80;94.90
72814;DHT22;60945;48.516;-2.768;2023-11-18T12:33:24;16.70;94.70
72814;DHT22;60945;48.516;-2.768;2023-11-18T12:43:49;16.60;94.20
72814;DHT22;60945;48.516;-2.768;2023-11-18T12:46:49;16.50;95.10
72814;DHT22;60945;48.516;-2.768;2023-11-18T12:49:21;16.40;95.30
72814;DHT22;60945;48.516;-2.768;2023-11-18T12:51:52;16.40;96.10
72814;DHT22;60945;48.516;-2.768;2023-11-18T12:54:19;16.60;96.20
72814;DHT22;60945;48.516;-2.768;2023-11-18T12:56:45;16.60;96.00
72814;DHT22;60945;48.516;-2.768;2023-11-18T12:59:15;16.60;95.10
72814;DHT22;60945;48.516;-2.768;2023-11-18T13:01:46;16.50;96.10
72814;DHT22;60945;48.516;-2.768;2023-11-18T13:04:18;16.80;95.40
72814;DHT22;60945;48.516;-2.768;2023-11-18T13:06:46;16.60;95.10
72814;DHT22;60945;48.516;-2.768;2023-11-18T13:09:12;16.70;94.80
72814;DHT22;60945;48.516;-2.768;2023-11-18T13:11:54;16.90;94.00
72814;DHT22;60945;48.516;-2.768;2023-11-18T13:14:23;16.80;94.40
72814;DHT22;60945;48.516;-2.768;2023-11-18T13:16:51;16.70;94.40
72814;DHT22;60945;48.516;-2.768;2023-11-18T13:19:25;16.90;94.30
72814;DHT22;60945;48.516;-2.768;2023-11-18T13:21:51;16.90;94.00
72814;DHT22;60945;48.516;-2.768;2023-11-18T13:24:17;17.20;93.10
72814;DHT22;60945;48.516;-2.768;2023-11-18T13:26:43;17.40;91.50
72814;DHT22;60945;48.516;-2.768;2023-11-18T13:29:08;17.20;91.40
72814;DHT22;60945;48.516;-2.768;2023-11-18T13:31:34;16.90;92.30
72814;DHT22;60945;48.516;-2.768;2023-11-18T13:34:01;16.70;94.40
72814;DHT22;60945;48.516;-2.768;2023-11-18T13:36:27;16.90;94.20
72814;DHT22;60945;48.516;-2.768;2023-11-18T13:38:55;16.90;94.10
72814;DHT22;60945;48.516;-2.768;2023-11-18T13:41:30;17.10;94.00
72814;DHT22;60945;48.516;-2.768;2023-11-18T13:43:57;17.20;93.10
72814;DHT22;60945;48.516;-2.768;2023-11-18T13:46:24;17.30;92.60
72814;DHT22;60945;48.516;-2.768;2023-11-18T13:48:51;17.20;92.20
72814;DHT22;60945;48.516;-2.768;2023-11-18T13:51:18;17.20;92.80
72814;DHT22;60945;48.516;-2.768;2023-11-18T13:53:45;17.20;92.60
72814;DHT22;60945;48.516;-2.768;2023-11-18T13:56:12;17.30;92.20
72814;DHT22;60945;48.516;-2.768;2023-11-18T13:58:39;17.10;92.90
72814;DHT22;60945;48.516;-2.768;2023-11-18T14:01:06;17.20;93.10
72814;DHT22;60945;48.516;-2.768;2023-11-18T14:03:36;17.00;92.80
72814;DHT22;60945;48.516;-2.768;2023-11-18T14:06:08;17.00;93.90
72814;DHT22;60945;48.516;-2.768;2023-11-18T14:08:38;17.00;94.30
72814;DHT22;60945;48.516;-2.768;2023-11-18T14:11:05;17.10;94.30
72814;DHT22;60945;48.516;-2.768;2023-11-18T14:13:32;17.30;93.70
72814;DHT22;60945;48.516;-2.768;2023-11-18T14:16:03;17.20;93.10
72814;DHT22;60945;48.516;-2.768;2023-11-18T14:18:29;17.20;93.60
72814;DHT22;60945;48.516;-2.768;2023-11-18T14:20:55;17.40;92.80
72814;DHT22;60945;48.516;-2.768;2023-11-18T14:23:22;17.60;92.00
72814;DHT22;60945;48.516;-2.768;2023-11-18T14:25:48;17.70;90.60
72814;DHT22;60945;48.516;-2.768;2023-11-18T14:28:14;17.60;90.40
72814;DHT22;60945;48.516;-2.768;2023-11-18T14:30:40;17.20;91.70
72814;DHT22;60945;48.516;-2.768;2023-11-18T14:33:06;17.30;91.70
72814;DHT22;60945;48.516;-2.768;2023-11-18T14:35:34;17.30;92.10
72814;DHT22;60945;48.516;-2.768;2023-11-18T14:38:01;17.30;91.40
72814;DHT22;60945;48.516;-2.768;2023-11-18T14:40:26;17.30;91.30
72814;DHT22;60945;48.516;-2.768;2023-11-18T14:42:53;17.30;91.50
72814;DHT22;60945;48.516;-2.768;2023-11-18T14:45:20;17.40;91.10
72814;DHT22;60945;48.516;-2.768;2023-11-18T14:47:45;17.40;91.20
72814;DHT22;60945;48.516;-2.768;2023-11-18T14:50:13;17.30;91.70
72814;DHT22;60945;48.516;-2.768;2023-11-18T14:52:46;17.20;91.90
72814;DHT22;60945;48.516;-2.768;2023-11-18T14:55:14;17.20;91.80
72814;DHT22;60945;48.516;-2.768;2023-11-18T14:57:43;17.20;91.10
72814;DHT22;60945;48.516;-2.768;2023-11-18T15:00:11;17.20;91.80
72814;DHT22;60945;48.516;-2.768;2023-11-18T15:02:53;17.30;91.50
72814;DHT22;60945;48.516;-2.768;2023-11-18T15:05:19;17.20;91.00
72814;DHT22;60945;48.516;-2.768;2023-11-18T15:07:53;17.20;91.40
72814;DHT22;60945;48.516;-2.768;2023-11-18T15:10:21;17.10;91.90
72814;DHT22;60945;48.516;-2.768;2023-11-18T15:15:13;17.00;91.80
72814;DHT22;60945;48.516;-2.768;2023-11-18T15:17:45;17.00;92.10
72814;DHT22;60945;48.516;-2.768;2023-11-18T15:20:12;17.10;91.60
72814;DHT22;60945;48.516;-2.768;2023-11-18T15:22:38;17.20;90.80
72814;DHT22;60945;48.516;-2.768;2023-11-18T15:25:04;17.20;90.10
72814;DHT22;60945;48.516;-2.768;2023-11-18T15:27:35;17.20;88.80
72814;DHT22;60945;48.516;-2.768;2023-11-18T15:30:00;17.00;87.90
72814;DHT22;60945;48.516;-2.768;2023-11-18T15:32:27;16.90;88.90
72814;DHT22;60945;48.516;-2.768;2023-11-18T15:34:53;17.00;89.50
72814;DHT22;60945;48.516;-2.768;2023-11-18T15:37:19;16.90;89.20
72814;DHT22;60945;48.516;-2.768;2023-11-18T15:39:44;16.80;88.70
72814;DHT22;60945;48.516;-2.768;2023-11-18T15:42:10;16.80;88.60
72814;DHT22;60945;48.516;-2.768;2023-11-18T15:44:36;16.80;89.10
72814;DHT22;60945;48.516;-2.768;2023-11-18T15:47:05;16.90;88.80
72814;DHT22;60945;48.516;-2.768;2023-11-18T15:49:30;16.90;88.80
72814;DHT22;60945;48.516;-2.768;2023-11-18T15:51:56;16.90;89.40
72814;DHT22;60945;48.516;-2.768;2023-11-18T15:54:22;16.90;89.40